Giddings, Texas
Current Conditions -  °F | °C
As of 11:55 PM on Saturday 22 Nov 2014 (Local Time) from KGYB Reporting Station
Overcast Overcast  
Wind Chill: 60°   Ceiling: 700
Heat Index: 60°   Visibility: 10mi
Dew Point: 58°   Wind: 8mph
Humidity: 96%   Direction: 30°NNE
Pressure: 29.71"   Gusts: NA
Location:  30.18°N, 96.94°W
Report Text: KGYB 230555Z AUTO 03007KT 10SM BKN007 OVC011 15/15 A2971 RMK AO2 60035 T01530146 10195 20153 401950153
Loading
Personal Weather Stations






























Interactive Weather Map New forecast layout! Learn more

10-Day Weather Forecast

Advertisements
Track Severe Weather on mobile